Terminal Aerodrome Forecast
Issued by NWS

Home | Current Version | Previous Version | Text Only | Print | Product List | Glossary On
Versions: 1 2 3 4 5 6 7 8 9 10 11 12
000
FTAK31 PAJN 250500
TAFAWG
TAF
PAWG 250520Z 2506/2606 VRB03KT P6SM VCSH FEW040 BKN100
     FM251500 34006KT P6SM BKN060
     FM252100 33006KT P6SM SCT060
      AMD LTD TO CLD VIS AND WIND 2506/2515=

USA.gov is the U.S. government's official web portal to all federal, state and local government web resources and services.